createdAt,value
2022-12-08T00:02:02.009Z,75.95
2022-12-08T00:04:30.579Z,74.38
2022-12-08T00:07:17.300Z,75.28
2022-12-08T00:09:45.621Z,70.30
2022-12-08T00:12:17.299Z,72.25
2022-12-08T00:14:47.059Z,72.40
2022-12-08T00:17:17.417Z,72.72
2022-12-08T00:19:46.127Z,73.70
2022-12-08T00:22:15.848Z,79.00
2022-12-08T00:24:48.004Z,75.72
2022-12-08T00:27:17.153Z,70.55
2022-12-08T00:29:46.133Z,72.05
2022-12-08T00:32:14.732Z,71.72
2022-12-08T00:34:43.033Z,73.47
2022-12-08T00:37:11.213Z,68.88
2022-12-08T00:39:39.733Z,70.68
2022-12-08T00:42:13.983Z,69.43
2022-12-08T00:44:44.174Z,73.03
2022-12-08T00:47:14.500Z,65.15
2022-12-08T00:49:43.222Z,73.15
2022-12-08T00:52:13.410Z,73.00
2022-12-08T00:54:42.063Z,74.60
2022-12-08T00:57:10.787Z,80.95
2022-12-08T00:59:39.028Z,77.70
2022-12-08T01:02:07.508Z,70.90
2022-12-08T01:04:35.709Z,76.80
2022-12-08T01:07:03.819Z,78.40
2022-12-08T01:09:31.778Z,80.10
2022-12-08T01:12:00.505Z,68.97
2022-12-08T01:14:28.964Z,78.68
2022-12-08T01:16:57.168Z,76.53
2022-12-08T01:19:26.038Z,80.55
2022-12-08T01:21:54.087Z,81.35
2022-12-08T01:24:22.768Z,87.65
2022-12-08T01:26:52.484Z,77.47
2022-12-08T01:29:20.744Z,83.47
2022-12-08T01:31:49.379Z,84.00
2022-12-08T01:34:17.823Z,83.15
2022-12-08T01:36:46.034Z,77.63
2022-12-08T01:39:19.668Z,81.30
2022-12-08T01:41:48.348Z,89.50
2022-12-08T01:44:16.789Z,77.85
2022-12-08T01:46:48.229Z,86.53
2022-12-08T01:49:23.548Z,87.10
2022-12-08T01:52:16.937Z,87.72
2022-12-08T01:54:53.711Z,85.43
2022-12-08T01:57:31.254Z,92.80
2022-12-08T02:00:06.808Z,84.25
2022-12-08T02:02:50.657Z,91.45
2022-12-08T02:05:21.390Z,85.15
2022-12-08T02:07:50.181Z,88.30
2022-12-08T02:10:22.350Z,85.72
2022-12-08T02:12:54.031Z,86.45
2022-12-08T02:15:47.654Z,89.18
2022-12-08T02:18:23.448Z,83.78
2022-12-08T02:21:01.889Z,86.28
2022-12-08T02:23:30.403Z,79.32
2022-12-08T02:26:35.524Z,84.30
2022-12-08T02:29:15.444Z,92.78
2022-12-08T02:32:03.783Z,90.00
2022-12-08T02:34:45.309Z,91.93
2022-12-08T02:37:28.719Z,97.85
2022-12-08T02:40:12.528Z,87.75
2022-12-08T02:42:55.709Z,97.05
2022-12-08T02:45:30.374Z,95.35
2022-12-08T02:48:00.494Z,92.63
2022-12-08T02:50:29.066Z,97.45
2022-12-08T02:52:57.219Z,84.72
2022-12-08T02:55:29.268Z,74.10
2022-12-08T02:58:22.608Z,74.63
2022-12-08T03:01:08.670Z,67.47
2022-12-08T03:03:58.298Z,65.85
2022-12-08T03:06:47.656Z,63.42
2022-12-08T03:09:49.279Z,68.80
2022-12-08T03:12:31.065Z,63.80
2022-12-08T03:15:04.759Z,62.53
2022-12-08T03:17:32.663Z,63.42
2022-12-08T03:20:05.404Z,66.63
2022-12-08T03:22:33.678Z,67.78
2022-12-08T03:25:02.301Z,67.88
2022-12-08T03:27:31.979Z,69.18
2022-12-08T03:30:02.692Z,69.70
2022-12-08T03:32:40.473Z,71.18
2022-12-08T03:35:16.809Z,70.15
2022-12-08T03:37:45.368Z,71.25
2022-12-08T03:40:17.565Z,75.40
2022-12-08T03:42:46.043Z,70.20
2022-12-08T03:45:14.646Z,76.47
2022-12-08T03:47:43.205Z,71.32
2022-12-08T03:50:12.243Z,74.32
2022-12-08T03:52:40.845Z,76.40
2022-12-08T03:55:09.473Z,83.50
2022-12-08T03:57:37.639Z,82.25
2022-12-08T04:00:09.868Z,78.85
2022-12-08T04:02:38.499Z,71.10
2022-12-08T04:05:07.030Z,78.22
2022-12-08T04:07:35.108Z,74.13
2022-12-08T04:10:03.897Z,73.88
2022-12-08T04:12:32.468Z,78.18
2022-12-08T04:15:00.951Z,81.03
2022-12-08T04:17:29.389Z,78.75
2022-12-08T04:19:57.473Z,74.38
2022-12-08T04:22:25.643Z,82.90
2022-12-08T04:24:54.314Z,81.43
2022-12-08T04:27:22.928Z,82.70
2022-12-08T04:29:51.368Z,91.03
2022-12-08T04:32:19.426Z,94.80
2022-12-08T04:34:47.831Z,91.82
2022-12-08T04:37:16.349Z,90.55
2022-12-08T04:39:44.988Z,90.90
2022-12-08T04:42:13.188Z,95.78
2022-12-08T04:44:41.428Z,97.50
2022-12-08T04:47:10.210Z,90.10
2022-12-08T04:49:38.846Z,97.20
2022-12-08T04:52:07.111Z,87.07
2022-12-08T04:54:35.190Z,89.60
2022-12-08T04:57:03.676Z,91.43
2022-12-08T04:59:31.908Z,89.72
2022-12-08T05:02:00.579Z,87.97
2022-12-08T05:04:28.944Z,91.65
2022-12-08T05:06:57.538Z,90.65
2022-12-08T05:09:25.883Z,85.10
2022-12-08T05:11:54.193Z,77.45
2022-12-08T05:14:22.879Z,79.90
2022-12-08T05:16:50.910Z,78.95
2022-12-08T05:19:19.286Z,70.50
2022-12-08T05:21:47.194Z,82.22
2022-12-08T05:24:15.384Z,70.13
2022-12-08T05:26:43.881Z,76.38
2022-12-08T05:29:12.518Z,76.70
2022-12-08T05:31:41.108Z,80.65
2022-12-08T05:34:12.238Z,79.57
2022-12-08T05:36:40.813Z,84.97
2022-12-08T05:39:14.738Z,78.63
2022-12-08T05:41:42.942Z,76.85
2022-12-08T05:44:11.238Z,81.03
2022-12-08T05:46:39.743Z,88.15
2022-12-08T05:49:07.854Z,87.38
2022-12-08T05:51:36.409Z,85.15
2022-12-08T16:04:14.249Z,63.73
2022-12-08T16:09:34.041Z,64.25
2022-12-08T16:12:21.459Z,56.55
2022-12-08T16:17:39.332Z,51.63
2022-12-08T16:20:16.159Z,50.28
2022-12-08T16:22:54.509Z,49.35
2022-12-08T16:25:52.685Z,51.33
2022-12-08T16:31:15.783Z,50.70
2022-12-08T16:33:45.374Z,53.45
2022-12-08T16:36:13.557Z,48.83
2022-12-08T16:38:41.835Z,47.42
2022-12-08T16:41:36.280Z,49.85
2022-12-08T16:44:06.882Z,50.17
2022-12-08T16:46:36.677Z,65.57
2022-12-08T16:49:08.934Z,66.82
2022-12-08T16:51:37.277Z,52.80
2022-12-08T16:54:05.574Z,49.80
2022-12-08T16:56:33.856Z,48.78
2022-12-08T16:59:03.204Z,47.08
2022-12-08T17:01:31.721Z,46.72
2022-12-08T17:04:29.892Z,45.78
2022-12-08T17:06:51.770Z,43.90
2022-12-08T17:09:20.325Z,46.17
2022-12-08T17:11:48.850Z,44.05
2022-12-08T17:14:17.485Z,47.38
2022-12-08T17:16:46.101Z,44.55
2022-12-08T17:19:15.860Z,46.08
2022-12-08T17:21:45.121Z,46.30
2022-12-08T17:24:15.979Z,45.60
2022-12-08T17:26:49.004Z,44.28
2022-12-08T17:29:19.461Z,41.95
2022-12-08T17:31:48.218Z,46.28
2022-12-08T17:34:16.680Z,43.00
2022-12-08T17:36:44.762Z,43.63
2022-12-08T17:39:18.389Z,45.38
2022-12-08T17:41:47.953Z,44.92
2022-12-08T17:44:18.970Z,45.28
2022-12-08T17:46:52.570Z,43.15
2022-12-08T17:49:24.144Z,40.42
2022-12-08T17:51:55.323Z,43.83
2022-12-08T17:54:24.613Z,42.90
2022-12-08T17:56:53.621Z,45.25
2022-12-08T17:59:22.335Z,47.10
2022-12-08T18:01:53.159Z,43.83
2022-12-08T18:04:22.628Z,43.38
2022-12-08T18:06:50.979Z,42.80
2022-12-08T18:09:19.818Z,40.85
2022-12-08T18:11:48.301Z,44.58
2022-12-08T18:14:17.142Z,40.97
2022-12-08T18:16:46.927Z,44.03
2022-12-08T18:19:15.539Z,43.58
2022-12-08T18:21:43.781Z,44.50
2022-12-08T18:24:23.583Z,42.60
2022-12-08T18:26:52.981Z,44.45
2022-12-08T18:29:23.029Z,41.80
2022-12-08T18:31:51.440Z,47.28
2022-12-08T18:34:19.510Z,45.13
2022-12-08T18:36:48.578Z,42.70
2022-12-08T18:39:28.871Z,43.15
2022-12-08T18:41:59.699Z,39.67
2022-12-08T18:44:28.604Z,43.63
2022-12-08T18:46:57.204Z,45.40
2022-12-08T18:49:27.248Z,44.90
2022-12-08T18:51:56.075Z,43.58
2022-12-08T18:54:37.119Z,45.95
2022-12-08T18:57:13.166Z,44.40
2022-12-08T18:59:41.756Z,46.80
2022-12-08T19:02:12.972Z,45.20
2022-12-08T19:04:42.965Z,45.88
2022-12-08T19:07:12.863Z,45.40
2022-12-08T19:09:43.021Z,48.75
2022-12-08T19:12:13.626Z,46.38
2022-12-08T19:14:42.103Z,46.05
2022-12-08T19:17:10.861Z,46.85
2022-12-08T19:19:39.421Z,45.60
2022-12-08T19:22:07.941Z,48.05
2022-12-08T19:24:37.471Z,50.17
2022-12-08T19:27:06.438Z,48.40
2022-12-08T19:29:35.010Z,49.90
2022-12-08T19:32:05.380Z,50.03
2022-12-08T19:34:34.067Z,47.17
2022-12-08T19:37:02.670Z,47.13
2022-12-08T19:39:49.278Z,47.15
2022-12-08T19:42:39.582Z,49.85
2022-12-08T19:45:13.429Z,50.10
2022-12-08T19:47:42.194Z,49.70
2022-12-08T19:50:30.838Z,44.83
2022-12-08T19:52:59.665Z,48.20
2022-12-08T19:55:28.468Z,52.50
2022-12-08T19:58:02.554Z,50.13
2022-12-08T20:00:31.793Z,49.90
2022-12-08T20:03:01.790Z,48.13
2022-12-08T20:05:32.086Z,50.75
2022-12-08T20:08:01.131Z,51.30
2022-12-08T20:10:34.465Z,44.63
2022-12-08T20:13:22.060Z,43.00
2022-12-08T20:18:19.361Z,42.10
2022-12-08T20:20:48.059Z,39.78
2022-12-08T20:23:16.865Z,38.92
2022-12-08T20:25:46.861Z,41.58
2022-12-08T20:28:15.597Z,44.10
2022-12-08T20:30:47.588Z,43.70
2022-12-08T20:33:20.667Z,48.97
2022-12-08T20:36:00.034Z,45.13
2022-12-08T20:38:29.441Z,46.55
2022-12-08T20:40:58.435Z,45.95
2022-12-08T20:43:27.476Z,49.28
2022-12-08T20:45:55.621Z,46.47
2022-12-08T20:48:24.297Z,48.85
2022-12-08T20:50:53.159Z,49.05
2022-12-08T20:53:21.910Z,46.85
2022-12-08T20:55:50.644Z,47.85
2022-12-08T20:58:18.908Z,47.08
2022-12-08T21:00:47.749Z,48.35
2022-12-08T21:03:18.506Z,49.53
2022-12-08T21:05:54.632Z,47.05
2022-12-08T21:08:26.580Z,46.95
2022-12-08T21:10:56.734Z,42.95
2022-12-08T21:13:25.934Z,47.63
2022-12-08T21:15:54.697Z,45.05
2022-12-08T21:18:24.491Z,44.28
2022-12-08T21:20:54.670Z,44.17
2022-12-08T21:23:23.007Z,47.75
2022-12-08T21:25:51.205Z,47.75
2022-12-08T21:28:19.971Z,55.05
2022-12-08T21:30:48.126Z,48.70
2022-12-08T21:33:16.636Z,49.33
2022-12-08T21:35:45.608Z,55.10
2022-12-08T21:38:13.962Z,52.35
2022-12-08T21:40:42.223Z,51.47
2022-12-08T21:43:10.755Z,55.00
2022-12-08T21:45:38.813Z,50.53
2022-12-08T21:48:11.483Z,53.90
2022-12-08T21:50:40.803Z,54.47
2022-12-08T21:53:09.529Z,53.95
2022-12-08T21:55:38.223Z,54.33
2022-12-08T21:58:06.333Z,51.38
2022-12-08T22:00:35.260Z,53.50
2022-12-08T22:03:04.849Z,54.00
2022-12-08T22:05:36.189Z,49.67
2022-12-08T22:08:05.093Z,48.00
2022-12-08T22:10:33.631Z,51.15
2022-12-08T22:13:02.198Z,50.97
2022-12-08T22:15:31.041Z,52.83
2022-12-08T22:17:59.304Z,55.63
2022-12-08T22:20:27.820Z,53.00
2022-12-08T22:22:56.045Z,50.90
2022-12-08T22:25:24.528Z,49.30
2022-12-08T22:27:52.779Z,50.58
2022-12-08T22:30:22.155Z,55.85
2022-12-08T22:32:50.967Z,49.63
2022-12-08T22:35:19.596Z,53.35
2022-12-08T22:37:50.791Z,56.72
2022-12-08T22:40:18.952Z,54.10
2022-12-08T22:42:47.293Z,54.00
2022-12-08T22:45:15.327Z,55.25
2022-12-08T22:47:43.529Z,51.97
2022-12-08T22:50:12.066Z,55.38
2022-12-08T22:52:40.531Z,51.63
2022-12-08T22:55:09.449Z,49.63
2022-12-08T22:57:37.840Z,50.45
2022-12-08T23:00:07.248Z,52.90
2022-12-08T23:02:37.926Z,54.05
2022-12-08T23:05:06.817Z,51.08
2022-12-08T23:07:35.628Z,54.38
2022-12-08T23:10:05.633Z,54.97
2022-12-08T23:12:34.415Z,52.30
2022-12-08T23:15:02.655Z,50.45
2022-12-08T23:17:32.086Z,52.75
2022-12-08T23:20:00.494Z,54.35
2022-12-08T23:22:28.830Z,49.95
2022-12-08T23:24:57.084Z,49.45
2022-12-08T23:27:25.771Z,54.13
2022-12-08T23:29:54.196Z,52.42
2022-12-08T23:32:22.987Z,52.65
2022-12-08T23:34:51.107Z,50.88
2022-12-08T23:37:19.303Z,53.53
2022-12-08T23:39:47.488Z,50.17
2022-12-08T23:42:15.884Z,53.42
2022-12-08T23:44:44.209Z,52.83
2022-12-08T23:47:12.653Z,57.45
2022-12-08T23:49:40.738Z,54.13
2022-12-08T23:52:13.763Z,59.95
2022-12-08T23:54:42.374Z,54.92
2022-12-08T23:57:10.790Z,53.97
2022-12-08T23:59:39.602Z,53.88
